Weather at Santa Barbara Municipal Airport

Public forecast

Using degrees Fahrenheit for public forecast. Weather courtesy of forecast.io.

Current aviation weather report (METAR) for Santa Barbara Municipal Airport

Retrieved 2020/10/23 23:53 UTC (26 minutes ago):

KSBA 232353Z 21005KT 10SM SCT037 19/13 A2994 RMK AO2 SLP139 T01940133 10211 20194 56006

Aviation forecast (TAF) for Santa Barbara Municipal Airport

Retrieved 2020-10-24 00:40 UTC (0 seconds ago):

TAF KSBA 232338Z 2400/2424 22006KT P6SM BKN040 FM240300 VRB03KT P6SM OVC035 FM242000 23006KT P6SM OVC045